createdAt,value
2023-12-11T00:04:09.698Z,7.94
2023-12-11T00:09:13.274Z,7.93
2023-12-11T00:14:16.536Z,7.93
2023-12-11T00:19:21.385Z,7.93
2023-12-11T00:24:25.205Z,8.00
2023-12-11T00:29:27.608Z,8.05
2023-12-11T00:34:30.311Z,8.04
2023-12-11T00:39:35.733Z,8.07
2023-12-11T00:44:39.251Z,7.99
2023-12-11T00:49:42.349Z,7.91
2023-12-11T00:54:46.147Z,7.97
2023-12-11T00:59:49.575Z,7.99
2023-12-11T01:04:51.789Z,8.01
2023-12-11T01:09:55.604Z,8.03
2023-12-11T01:14:58.716Z,8.03
2023-12-11T01:20:02.655Z,8.08
2023-12-11T01:25:06.570Z,8.13
2023-12-11T01:30:08.844Z,8.12
2023-12-11T01:35:12.069Z,8.16
2023-12-11T01:40:15.864Z,8.20
2023-12-11T01:45:17.848Z,8.20
2023-12-11T01:50:19.556Z,8.25
2023-12-11T01:55:22.064Z,8.29
2023-12-11T02:00:25.360Z,8.31
2023-12-11T02:05:28.324Z,8.30
2023-12-11T02:10:30.312Z,8.26
2023-12-11T02:15:42.774Z,8.28
2023-12-11T02:20:46.808Z,8.19
2023-12-11T02:26:01.600Z,8.20
2023-12-11T02:31:04.518Z,8.18
2023-12-11T02:36:08.177Z,8.25
2023-12-11T02:41:10.000Z,8.26
2023-12-11T02:46:12.638Z,8.27
2023-12-11T02:51:17.760Z,8.32
2023-12-11T02:56:19.567Z,8.36
2023-12-11T03:01:21.426Z,8.39
2023-12-11T03:06:23.839Z,8.44
2023-12-11T03:11:25.568Z,8.47
2023-12-11T03:16:27.286Z,8.54
2023-12-11T03:21:29.167Z,8.61
2023-12-11T03:26:30.842Z,8.67
2023-12-11T03:31:32.689Z,8.74
2023-12-11T03:36:35.075Z,8.77
2023-12-11T03:41:38.790Z,8.83
2023-12-11T03:46:41.333Z,8.87
2023-12-11T03:51:46.875Z,8.89
2023-12-11T03:56:48.862Z,8.89
2023-12-11T04:01:50.679Z,8.91
2023-12-11T04:06:52.907Z,8.85
2023-12-11T04:11:54.761Z,8.78
2023-12-11T04:16:56.424Z,8.75
2023-12-11T04:21:58.325Z,8.74
2023-12-11T04:27:01.201Z,8.75
2023-12-11T04:32:03.106Z,8.76
2023-12-11T04:37:04.784Z,8.72
2023-12-11T04:42:06.736Z,8.70
2023-12-11T04:47:08.846Z,8.68
2023-12-11T04:52:11.381Z,8.65
2023-12-11T04:57:13.578Z,8.70
2023-12-11T05:02:15.652Z,8.74
2023-12-11T05:07:17.931Z,8.79
2023-12-11T05:12:19.966Z,8.82
2023-12-11T05:17:21.916Z,8.84
2023-12-11T05:22:23.891Z,8.84
2023-12-11T05:27:25.752Z,8.86
2023-12-11T05:32:28.004Z,8.87
2023-12-11T05:37:30.008Z,8.86
2023-12-11T05:42:31.785Z,8.88
2023-12-11T05:47:33.816Z,8.89
2023-12-11T05:52:35.618Z,8.92
2023-12-11T05:57:37.295Z,8.94
2023-12-11T06:02:39.046Z,8.94
2023-12-11T06:07:41.060Z,8.92
2023-12-11T06:12:42.856Z,8.89
2023-12-11T06:17:44.614Z,8.87
2023-12-11T06:22:49.468Z,8.87
2023-12-11T06:27:52.970Z,8.89
2023-12-11T06:32:54.840Z,8.90
2023-12-11T06:37:56.651Z,8.90
2023-12-11T06:42:58.461Z,8.90
2023-12-11T06:48:00.246Z,8.94
2023-12-11T06:53:01.920Z,8.96
2023-12-11T06:58:04.224Z,8.96
2023-12-11T07:03:06.981Z,9.02
2023-12-11T07:08:08.795Z,9.05
2023-12-11T07:13:10.505Z,9.12
2023-12-11T07:18:15.007Z,9.15
2023-12-11T07:23:16.798Z,9.21
2023-12-11T07:28:18.438Z,9.27
2023-12-11T07:33:20.172Z,9.31
2023-12-11T07:38:21.893Z,9.33
2023-12-11T07:43:23.747Z,9.37
2023-12-11T07:48:26.263Z,9.36
2023-12-11T07:53:28.998Z,9.32
2023-12-11T07:58:30.997Z,9.31
2023-12-11T08:03:32.684Z,9.34
2023-12-11T08:08:36.602Z,9.33
2023-12-11T08:13:38.223Z,9.30
2023-12-11T08:18:41.799Z,9.26
2023-12-11T08:23:52.161Z,9.29
2023-12-11T08:28:54.703Z,9.18
2023-12-11T08:33:57.682Z,9.26
2023-12-11T08:38:59.343Z,9.30
2023-12-11T08:44:01.052Z,9.45
2023-12-11T08:49:02.793Z,9.56
2023-12-11T08:54:04.526Z,9.66
2023-12-11T08:59:06.166Z,9.74
2023-12-11T09:04:07.868Z,9.80
2023-12-11T09:09:09.804Z,9.85
2023-12-11T09:14:11.407Z,9.89
2023-12-11T09:19:13.276Z,9.87
2023-12-11T09:24:15.152Z,9.87
2023-12-11T09:29:16.851Z,9.88
2023-12-11T09:34:18.822Z,9.88
2023-12-11T09:39:20.762Z,9.84
2023-12-11T09:44:22.868Z,9.75
2023-12-11T09:49:27.839Z,9.66
2023-12-11T09:54:31.082Z,9.70
2023-12-11T09:59:33.049Z,9.66
2023-12-11T10:04:35.051Z,9.66
2023-12-11T10:09:36.786Z,9.66
2023-12-11T10:14:38.521Z,9.65
2023-12-11T10:19:40.344Z,9.61
2023-12-11T10:24:45.267Z,9.69
2023-12-11T10:29:47.389Z,9.77
2023-12-11T10:34:51.697Z,9.80
2023-12-11T10:39:57.921Z,9.87
2023-12-11T10:45:00.431Z,9.76
2023-12-11T10:50:03.905Z,9.88
2023-12-11T10:55:05.990Z,9.91
2023-12-11T11:00:09.025Z,9.94
2023-12-11T11:05:13.131Z,9.89
2023-12-11T11:10:21.416Z,9.96
2023-12-11T11:15:24.563Z,10.06
2023-12-11T11:20:53.447Z,10.19
2023-12-11T11:25:55.688Z,10.16
2023-12-11T11:30:57.855Z,10.12
2023-12-11T11:36:00.425Z,10.19
2023-12-11T11:41:03.518Z,10.11
2023-12-11T11:46:05.476Z,10.20
2023-12-11T11:51:08.037Z,10.22
2023-12-11T11:56:10.830Z,10.13
2023-12-11T12:01:13.372Z,10.16
2023-12-11T12:06:18.412Z,10.17
2023-12-11T12:11:20.876Z,10.24
2023-12-11T12:16:30.264Z,10.30
2023-12-11T12:21:33.952Z,10.33
2023-12-11T12:26:37.522Z,10.19
2023-12-11T12:31:40.707Z,10.28
2023-12-11T12:36:44.124Z,10.24
2023-12-11T12:41:52.153Z,10.31
2023-12-11T12:47:04.376Z,10.45
2023-12-11T12:52:06.916Z,10.54
2023-12-11T12:57:08.867Z,10.68
2023-12-11T13:02:18.738Z,10.63
2023-12-11T13:07:27.245Z,10.72
2023-12-11T13:12:28.860Z,10.78
2023-12-11T13:17:30.817Z,10.78
2023-12-11T13:22:32.501Z,10.92
2023-12-11T13:27:34.261Z,10.94
2023-12-11T13:32:36.051Z,10.96
2023-12-11T13:37:38.937Z,10.90
2023-12-11T13:42:41.083Z,10.95
2023-12-11T13:47:42.735Z,10.90
2023-12-11T13:52:44.440Z,11.00
2023-12-11T13:57:47.194Z,11.02
2023-12-11T14:03:00.837Z,11.04
2023-12-11T14:08:06.412Z,11.09
2023-12-11T14:13:13.689Z,11.12
2023-12-11T14:18:15.746Z,10.97
2023-12-11T14:23:17.528Z,10.94
2023-12-11T14:28:19.441Z,10.91
2023-12-11T14:33:22.683Z,10.98
2023-12-11T14:38:24.795Z,11.08
2023-12-11T14:43:26.700Z,11.09
2023-12-11T14:48:28.856Z,11.12
2023-12-11T14:53:30.498Z,11.17
2023-12-11T14:58:35.955Z,11.12
2023-12-11T15:03:37.672Z,11.15
2023-12-11T15:08:40.781Z,11.13
2023-12-11T15:13:44.017Z,11.10
2023-12-11T15:18:49.020Z,11.12
2023-12-11T15:23:52.415Z,11.08
2023-12-11T15:28:55.482Z,11.11
2023-12-11T15:33:57.363Z,11.07
2023-12-11T15:38:59.579Z,11.05
2023-12-11T15:44:01.149Z,11.01
2023-12-11T15:49:02.878Z,10.95
2023-12-11T15:54:04.808Z,10.92
2023-12-11T15:59:06.424Z,10.88
2023-12-11T16:04:08.354Z,10.76
2023-12-11T16:09:12.230Z,10.73
2023-12-11T16:14:14.763Z,10.62
2023-12-11T16:19:16.932Z,10.60
2023-12-11T16:24:19.261Z,10.65
2023-12-11T16:29:22.192Z,10.68
2023-12-11T16:34:24.773Z,10.72
2023-12-11T16:39:27.011Z,10.63
2023-12-11T16:44:28.779Z,10.61
2023-12-11T16:49:31.659Z,10.51
2023-12-11T16:54:35.044Z,10.53
2023-12-11T16:59:37.147Z,10.53
2023-12-11T17:04:39.005Z,10.50
2023-12-11T17:09:40.944Z,10.43
2023-12-11T17:14:43.566Z,10.43
2023-12-11T17:19:45.200Z,10.46
2023-12-11T17:24:46.959Z,10.38
2023-12-11T17:29:48.991Z,10.01
2023-12-11T17:34:50.828Z,10.06
2023-12-11T17:39:54.748Z,9.96
2023-12-11T17:44:56.719Z,10.05
2023-12-11T17:49:59.113Z,10.12
2023-12-11T17:55:00.908Z,10.03
2023-12-11T18:00:02.702Z,10.04
2023-12-11T18:05:06.594Z,9.95
2023-12-11T18:10:13.681Z,10.04
2023-12-11T18:15:15.861Z,9.99
2023-12-11T18:20:17.926Z,9.98
2023-12-11T18:25:19.799Z,9.91
2023-12-11T18:30:21.797Z,9.88
2023-12-11T18:35:24.148Z,9.95
2023-12-11T18:40:26.862Z,9.76
2023-12-11T18:45:29.907Z,9.84
2023-12-11T18:50:32.691Z,9.79
2023-12-11T18:55:34.944Z,9.84
2023-12-11T19:00:36.752Z,9.89
2023-12-11T19:05:38.499Z,9.94
2023-12-11T19:10:40.254Z,9.93
2023-12-11T19:15:41.816Z,9.97
2023-12-11T19:20:43.521Z,9.86
2023-12-11T19:25:46.038Z,9.98
2023-12-11T19:30:48.270Z,9.94
2023-12-11T19:35:50.972Z,9.94
2023-12-11T19:40:52.628Z,9.89
2023-12-11T19:45:54.825Z,9.85
2023-12-11T19:50:57.289Z,9.73
2023-12-11T19:55:59.267Z,9.74
2023-12-11T20:01:01.009Z,9.76
2023-12-11T20:06:03.093Z,9.68
2023-12-11T20:11:05.481Z,9.69
2023-12-11T20:16:07.892Z,9.75
2023-12-11T20:21:09.582Z,9.74
2023-12-11T20:26:14.870Z,9.75
2023-12-11T20:31:18.021Z,9.78
2023-12-11T20:36:22.174Z,9.79
2023-12-11T20:41:25.981Z,9.82
2023-12-11T20:46:27.936Z,9.83
2023-12-11T20:51:30.055Z,9.85
2023-12-11T20:56:33.389Z,9.80
2023-12-11T21:01:37.189Z,9.84
2023-12-11T21:06:40.107Z,9.89
2023-12-11T21:11:42.402Z,9.92
2023-12-11T21:16:45.780Z,9.87
2023-12-11T21:21:47.939Z,9.91
2023-12-11T21:26:49.594Z,9.93
2023-12-11T21:31:51.539Z,9.95
2023-12-11T21:36:53.942Z,9.98
2023-12-11T21:41:56.303Z,10.01
2023-12-11T21:46:59.595Z,9.94
2023-12-11T21:52:02.675Z,9.94
2023-12-11T21:57:04.819Z,9.91
2023-12-11T22:02:06.602Z,9.90
2023-12-11T22:07:08.356Z,9.85
2023-12-11T22:12:10.489Z,9.88
2023-12-11T22:17:13.264Z,9.95
2023-12-11T22:22:15.678Z,9.96
2023-12-11T22:27:17.511Z,9.95
2023-12-11T22:32:19.192Z,9.98
2023-12-11T22:37:20.857Z,9.90
2023-12-11T22:42:22.698Z,9.92
2023-12-11T22:47:24.293Z,9.91
2023-12-11T22:52:26.262Z,9.81
2023-12-11T22:57:28.517Z,9.80
2023-12-11T23:02:30.685Z,9.89
2023-12-11T23:07:33.334Z,9.94
2023-12-11T23:12:35.455Z,10.01
2023-12-11T23:17:37.586Z,10.10
2023-12-11T23:22:39.221Z,10.19
2023-12-11T23:27:41.364Z,10.21
2023-12-11T23:32:43.264Z,10.18
2023-12-11T23:37:45.006Z,10.07
2023-12-11T23:42:46.680Z,9.94
2023-12-11T23:47:48.429Z,9.95
2023-12-11T23:52:50.057Z,9.91
2023-12-11T23:57:51.640Z,9.86
